createdAt,value
2019-01-24T00:01:22.830Z,20.47
2019-01-24T00:06:26.502Z,19.67
2019-01-24T00:11:30.180Z,19.73
2019-01-24T00:16:34.152Z,20.63
2019-01-24T00:21:37.847Z,20.77
2019-01-24T00:26:41.532Z,19.30
2019-01-24T00:31:45.266Z,18.47
2019-01-24T00:36:48.999Z,19.17
2019-01-24T00:41:52.742Z,19.40
2019-01-24T00:46:56.624Z,18.57
2019-01-24T00:52:00.296Z,18.83
2019-01-24T00:57:04.045Z,18.70
2019-01-24T01:02:07.757Z,19.97
2019-01-24T01:07:11.594Z,19.73
2019-01-24T01:12:15.400Z,19.17
2019-01-24T01:17:19.082Z,20.87
2019-01-24T01:22:22.797Z,19.90
2019-01-24T01:27:26.529Z,20.23
2019-01-24T01:32:30.343Z,19.60
2019-01-24T01:37:34.243Z,19.57
2019-01-24T01:42:37.998Z,20.40
2019-01-24T01:47:42.060Z,20.93
2019-01-24T01:52:45.811Z,20.00
2019-01-24T01:57:49.611Z,19.17
2019-01-24T02:02:53.329Z,20.33
2019-01-24T02:07:57.033Z,19.20
2019-01-24T02:13:00.839Z,19.40
2019-01-24T02:18:05.157Z,19.33
2019-01-24T02:23:08.848Z,18.90
2019-01-24T02:28:12.863Z,21.20
2019-01-24T02:33:16.528Z,19.57
2019-01-24T02:38:20.237Z,20.60
2019-01-24T02:43:23.916Z,20.40
2019-01-24T02:48:27.911Z,21.10
2019-01-24T02:53:31.886Z,20.67
2019-01-24T02:58:54.928Z,21.63
2019-01-24T03:03:58.643Z,22.70
2019-01-24T03:09:02.911Z,22.23
2019-01-24T03:14:06.700Z,21.97
2019-01-24T03:19:10.769Z,21.77
2019-01-24T03:24:14.476Z,22.37
2019-01-24T03:29:18.181Z,20.67
2019-01-24T03:34:21.879Z,21.90
2019-01-24T03:39:25.589Z,20.50
2019-01-24T03:44:29.282Z,20.40
2019-01-24T03:49:32.988Z,20.77
2019-01-24T03:54:36.708Z,20.73
2019-01-24T03:59:40.423Z,20.53
2019-01-24T04:04:44.203Z,21.70
2019-01-24T04:09:48.187Z,20.73
2019-01-24T04:14:51.900Z,20.47
2019-01-24T04:19:55.607Z,20.90
2019-01-24T04:24:59.336Z,21.43
2019-01-24T04:30:04.022Z,21.10
2019-01-24T04:35:09.143Z,21.17
2019-01-24T04:40:17.368Z,19.80
2019-01-24T04:45:21.161Z,20.23
2019-01-24T04:50:25.542Z,19.87
2019-01-24T04:55:29.256Z,20.80
2019-01-24T05:00:32.963Z,20.60
2019-01-24T05:05:36.685Z,19.83
2019-01-24T05:10:40.379Z,21.20
2019-01-24T05:15:44.114Z,19.30
2019-01-24T05:20:47.906Z,21.30
2019-01-24T05:25:51.631Z,19.23
2019-01-24T05:30:55.379Z,20.67
2019-01-24T05:35:59.146Z,18.27
2019-01-24T05:41:02.916Z,19.73
2019-01-24T05:46:06.703Z,19.90
2019-01-24T05:51:10.435Z,23.07
2019-01-24T05:56:14.760Z,18.63
2019-01-24T06:01:18.945Z,20.60
2019-01-24T06:06:22.658Z,18.27
2019-01-24T06:11:26.367Z,17.43
2019-01-24T06:16:30.058Z,18.47
2019-01-24T06:21:33.915Z,37.10
2019-01-24T06:26:39.898Z,31.00
2019-01-24T06:31:43.624Z,19.47
2019-01-24T06:36:47.335Z,18.13
2019-01-24T06:41:51.043Z,19.20
2019-01-24T06:46:54.743Z,18.27
2019-01-24T06:51:58.463Z,19.00
2019-01-24T06:57:02.188Z,18.60
2019-01-24T07:02:06.082Z,18.33
2019-01-24T07:07:09.891Z,19.17
2019-01-24T07:12:13.637Z,18.53
2019-01-24T07:17:17.370Z,20.70
2019-01-24T07:22:21.087Z,17.07
2019-01-24T07:27:24.777Z,19.77
2019-01-24T07:32:28.845Z,17.77
2019-01-24T07:37:32.534Z,18.73
2019-01-24T07:42:36.240Z,17.87
2019-01-24T07:47:41.287Z,17.97
2019-01-24T07:52:45.110Z,16.70
2019-01-24T07:57:49.782Z,17.10
2019-01-24T08:02:53.758Z,17.17
2019-01-24T08:07:57.527Z,17.40
2019-01-24T08:13:01.399Z,17.10
2019-01-24T08:18:05.512Z,16.07
2019-01-24T08:23:09.527Z,16.90
2019-01-24T08:28:13.213Z,16.80
2019-01-24T08:33:16.989Z,17.83
2019-01-24T08:38:21.201Z,17.53
2019-01-24T08:43:24.939Z,17.60
2019-01-24T08:48:28.705Z,16.30
2019-01-24T08:53:32.478Z,17.37
2019-01-24T08:58:36.178Z,23.30
2019-01-24T09:03:39.873Z,19.27
2019-01-24T09:08:43.562Z,18.43
2019-01-24T09:13:47.547Z,19.10
2019-01-24T09:18:51.238Z,22.43
2019-01-24T09:23:54.938Z,41.60
2019-01-24T09:28:58.936Z,17.60
2019-01-24T09:34:02.969Z,18.20
2019-01-24T09:39:08.416Z,18.73
2019-01-24T09:44:12.107Z,18.93
2019-01-24T09:49:15.807Z,22.47
2019-01-24T09:54:19.497Z,19.13
2019-01-24T09:59:23.190Z,18.83
2019-01-24T10:04:26.903Z,19.33
2019-01-24T10:09:30.607Z,18.83
2019-01-24T10:14:34.387Z,19.53
2019-01-24T10:19:38.428Z,20.03
2019-01-24T10:24:42.430Z,20.30
2019-01-24T10:29:46.129Z,21.17
2019-01-24T10:34:49.832Z,21.57
2019-01-24T10:39:53.548Z,21.67
2019-01-24T10:44:57.312Z,21.50
2019-01-24T10:50:01.011Z,22.97
2019-01-24T10:55:05.434Z,22.63
2019-01-24T11:00:13.483Z,20.40
2019-01-24T11:05:17.419Z,21.63
2019-01-24T11:10:21.305Z,21.83
2019-01-24T11:15:25.270Z,20.33
2019-01-24T11:20:29.520Z,19.77
2019-01-24T11:25:33.651Z,21.33
2019-01-24T11:30:37.487Z,23.03
2019-01-24T11:35:41.728Z,25.33
2019-01-24T11:40:45.495Z,23.63
2019-01-24T11:45:49.204Z,25.17
2019-01-24T11:50:53.186Z,24.73
2019-01-24T11:55:56.877Z,26.80
2019-01-24T12:01:00.953Z,25.80
2019-01-24T12:06:05.096Z,24.90
2019-01-24T12:11:08.867Z,26.77
2019-01-24T12:16:12.584Z,24.03
2019-01-24T12:21:16.358Z,25.40
2019-01-24T12:26:20.351Z,25.67
2019-01-24T12:31:24.299Z,25.63
2019-01-24T12:36:28.300Z,21.90
2019-01-24T12:41:31.994Z,22.50
2019-01-24T12:46:35.715Z,24.10
2019-01-24T12:51:39.454Z,25.97
2019-01-24T12:56:43.394Z,22.70
2019-01-24T13:01:47.097Z,23.50
2019-01-24T13:06:50.785Z,22.83
2019-01-24T13:11:54.725Z,23.60
2019-01-24T13:16:58.787Z,20.90
2019-01-24T13:22:02.837Z,22.33
2019-01-24T13:27:06.531Z,23.97
2019-01-24T13:32:10.241Z,22.87
2019-01-24T13:37:13.930Z,23.23
2019-01-24T13:42:17.710Z,22.53
2019-01-24T13:47:21.737Z,21.90
2019-01-24T13:52:25.449Z,21.70
2019-01-24T13:57:29.134Z,21.30
2019-01-24T14:02:32.922Z,22.93
2019-01-24T14:07:36.941Z,22.80
2019-01-24T14:12:40.723Z,23.60
2019-01-24T14:17:44.671Z,23.33
2019-01-24T14:22:48.544Z,23.20
2019-01-24T14:27:52.240Z,24.60
2019-01-24T14:32:56.083Z,25.27
2019-01-24T14:38:00.065Z,23.43
2019-01-24T14:43:04.524Z,25.50
2019-01-24T14:48:08.945Z,27.23
2019-01-24T14:53:12.724Z,25.13
2019-01-24T14:58:16.494Z,23.97
2019-01-24T15:03:20.206Z,26.17
2019-01-24T15:08:24.260Z,24.83
2019-01-24T15:13:28.028Z,26.17
2019-01-24T15:18:31.727Z,25.63
2019-01-24T15:23:35.684Z,25.27
2019-01-24T15:28:39.463Z,25.10
2019-01-24T15:33:43.239Z,25.07
2019-01-24T15:38:47.637Z,25.83
2019-01-24T15:43:51.357Z,24.03
2019-01-24T15:48:55.468Z,24.33
2019-01-24T15:53:59.167Z,23.97
2019-01-24T15:59:02.866Z,25.27
2019-01-24T16:04:06.569Z,24.00
2019-01-24T16:09:10.321Z,23.40
2019-01-24T16:14:14.031Z,24.20
2019-01-24T16:19:17.769Z,22.53
2019-01-24T16:24:21.534Z,24.63
2019-01-24T16:29:25.270Z,22.43
2019-01-24T16:34:28.964Z,24.33
2019-01-24T16:39:32.732Z,23.80
2019-01-24T16:44:36.524Z,22.20
2019-01-24T16:49:40.309Z,25.60
2019-01-24T16:54:44.577Z,23.33
2019-01-24T16:59:48.305Z,24.77
2019-01-24T17:04:52.283Z,25.43
2019-01-24T17:09:56.050Z,26.03
2019-01-24T17:14:59.824Z,24.23
2019-01-24T17:20:05.205Z,25.63
2019-01-24T17:25:10.203Z,26.27
2019-01-24T17:30:16.940Z,24.83
2019-01-24T17:35:21.124Z,27.60
2019-01-24T17:40:27.080Z,28.77
2019-01-24T17:45:32.147Z,26.67
2019-01-24T17:50:36.165Z,26.67
2019-01-24T17:55:42.334Z,26.07
2019-01-24T18:00:51.422Z,27.73
2019-01-24T18:05:55.136Z,27.30
2019-01-24T18:10:59.143Z,26.17
2019-01-24T18:16:02.930Z,26.73
2019-01-24T18:21:06.644Z,29.27
2019-01-24T18:26:10.381Z,29.70
2019-01-24T18:31:14.120Z,28.10
2019-01-24T18:36:17.847Z,29.00
2019-01-24T18:41:21.556Z,29.70
2019-01-24T18:46:25.694Z,27.23
2019-01-24T18:51:29.455Z,29.07
2019-01-24T18:56:33.518Z,28.47
2019-01-24T19:01:38.416Z,28.50
2019-01-24T19:06:42.247Z,29.03
2019-01-24T19:11:46.269Z,29.33
2019-01-24T19:16:50.286Z,29.83
2019-01-24T19:21:54.311Z,28.00
2019-01-24T19:26:58.031Z,29.43
2019-01-24T19:32:04.688Z,28.43
2019-01-24T19:37:08.845Z,29.50
2019-01-24T19:42:12.595Z,29.90
2019-01-24T19:47:17.369Z,28.67
2019-01-24T19:52:21.339Z,29.07
2019-01-24T19:57:25.479Z,28.20
2019-01-24T20:25:55.323Z,28.03
2019-01-24T20:30:59.045Z,27.87
2019-01-24T20:36:03.390Z,28.47
2019-01-24T20:41:07.329Z,27.13
2019-01-24T20:46:40.976Z,28.87
2019-01-24T20:51:44.889Z,27.20
2019-01-24T20:56:51.094Z,28.63
2019-01-24T21:01:55.456Z,26.90
2019-01-24T21:06:59.308Z,27.33
2019-01-24T21:12:03.231Z,26.23
2019-01-24T21:17:07.121Z,28.30
2019-01-24T21:22:13.084Z,27.00
2019-01-24T21:27:16.931Z,28.03
2019-01-24T21:32:20.740Z,29.10
2019-01-24T21:37:24.533Z,31.23
2019-01-24T21:42:47.572Z,29.20
2019-01-24T21:47:51.296Z,29.77
2019-01-24T21:52:55.016Z,28.40
2019-01-24T21:57:58.803Z,28.33
2019-01-24T22:03:02.586Z,27.30
2019-01-24T22:08:07.118Z,27.33
2019-01-24T22:13:11.180Z,27.67
2019-01-24T22:18:15.213Z,27.47
2019-01-24T22:23:19.235Z,27.50
2019-01-24T22:28:24.224Z,26.83
2019-01-24T22:33:27.979Z,27.30
2019-01-24T22:38:31.710Z,28.37
2019-01-24T22:43:35.414Z,27.93
2019-01-24T22:48:39.471Z,27.87
2019-01-24T22:53:43.183Z,32.03
2019-01-24T22:58:46.904Z,27.07
2019-01-24T23:03:55.592Z,27.40
2019-01-24T23:08:59.308Z,28.57
2019-01-24T23:14:03.145Z,27.67
2019-01-24T23:19:06.895Z,27.83
2019-01-24T23:24:10.619Z,27.47
2019-01-24T23:29:14.339Z,29.50
2019-01-24T23:34:18.203Z,27.13
2019-01-24T23:39:21.987Z,29.13
2019-01-24T23:44:26.042Z,29.23
2019-01-24T23:49:29.788Z,29.37
2019-01-24T23:54:33.568Z,27.17
2019-01-24T23:59:37.286Z,27.90
